Time,TemperatureF,DewpointF,PressureIn,WindDirection,WindDirectionDegrees,WindSpeedMPH,WindSpeedGustMPH,Humidity,HourlyPrecipIn,Conditions,Clouds,dailyrainin,SoftwareType,DateUTC
2013-01-07 00:00:00,17.8,12.1,28.76,SSE,158,9.0,11.0,78,0.00,,,0.00,VWS V14.01,2013-01-07 06:00:00,
2013-01-07 00:05:00,20.3,14.6,28.73,SSE,158,10.7,14.1,78,0.00,,,0.00,VWS V14.01,2013-01-07 06:05:00,
2013-01-07 00:10:00,18.1,12.7,28.76,SSE,158,9.6,13.2,79,0.00,,,0.00,VWS V14.01,2013-01-07 06:10:00,
2013-01-07 00:15:00,17.6,11.6,28.76,South,180,7.8,9.8,77,0.00,,,0.00,VWS V14.01,2013-01-07 06:15:00,
2013-01-07 00:20:00,17.4,11.5,28.76,South,180,7.4,8.7,77,0.00,,,0.00,VWS V14.01,2013-01-07 06:20:00,
2013-01-07 00:25:00,19.0,12.7,28.73,South,180,10.1,10.5,76,0.00,,,0.00,VWS V14.01,2013-01-07 06:25:00,
2013-01-07 00:30:00,16.9,10.9,28.76,SSE,158,9.0,11.4,77,0.00,,,0.00,VWS V14.01,2013-01-07 06:30:00,
2013-01-07 00:35:00,16.7,11.1,28.73,SSE,158,8.5,9.6,78,0.00,,,0.00,VWS V14.01,2013-01-07 06:35:00,
2013-01-07 00:40:00,16.7,11.3,28.73,South,180,8.7,8.7,79,0.00,,,0.00,VWS V14.01,2013-01-07 06:40:00,
2013-01-07 00:45:00,18.0,13.1,28.73,SSE,158,12.1,12.1,81,0.00,,,0.00,VWS V14.01,2013-01-07 06:45:00,
2013-01-07 00:50:00,19.0,14.7,28.73,SSE,158,10.7,13.2,83,0.00,,,0.00,VWS V14.01,2013-01-07 06:50:00,
2013-01-07 00:55:00,19.6,14.7,28.73,SSE,158,10.3,12.3,81,0.00,,,0.00,VWS V14.01,2013-01-07 06:55:00,
2013-01-07 01:00:00,20.3,15.1,28.73,South,180,14.1,15.7,80,0.00,,,0.00,VWS V14.01,2013-01-07 07:00:00,
2013-01-07 01:05:00,20.3,14.6,28.73,SSE,158,10.7,14.1,78,0.00,,,0.00,VWS V14.01,2013-01-07 07:05:00,
2013-01-07 01:10:00,20.1,14.1,28.73,South,180,11.0,14.8,77,0.00,,,0.00,VWS V14.01,2013-01-07 07:10:00,
2013-01-07 01:15:00,19.8,13.4,28.73,South,180,10.5,12.1,76,0.00,,,0.00,VWS V14.01,2013-01-07 07:15:00,
2013-01-07 01:20:00,19.2,12.9,28.73,South,180,8.7,10.5,76,0.00,,,0.00,VWS V14.01,2013-01-07 07:20:00,
2013-01-07 01:25:00,19.0,12.7,28.73,South,180,10.1,10.5,76,0.00,,,0.00,VWS V14.01,2013-01-07 07:25:00,
2013-01-07 01:30:00,23.0,16.3,28.70,SSE,158,17.7,22.4,75,0.00,,,0.00,VWS V14.01,2013-01-07 07:30:00,
2013-01-07 01:35:00,19.4,13.7,28.73,South,180,10.7,13.0,78,0.00,,,0.00,VWS V14.01,2013-01-07 07:35:00,
2013-01-07 01:40:00,19.6,13.9,28.73,SSE,158,13.0,15.2,78,0.00,,,0.00,VWS V14.01,2013-01-07 07:40:00,
2013-01-07 01:45:00,20.3,14.6,28.73,SSE,158,17.0,17.7,78,0.00,,,0.00,VWS V14.01,2013-01-07 07:45:00,
2013-01-07 01:50:00,20.5,14.4,28.73,SSE,158,17.0,17.7,77,0.00,,,0.00,VWS V14.01,2013-01-07 07:50:00,
2013-01-07 01:55:00,20.3,13.7,28.73,SSE,158,15.4,17.5,75,0.00,,,0.00,VWS V14.01,2013-01-07 07:55:00,
2013-01-07 02:00:00,20.7,14.3,28.73,SSE,158,15.2,19.7,76,0.00,,,0.00,VWS V14.01,2013-01-07 08:00:00,
2013-01-07 02:05:00,21.6,15.2,28.70,SSE,158,15.7,19.9,76,0.00,,,0.00,VWS V14.01,2013-01-07 08:05:00,
2013-01-07 02:10:00,21.9,15.2,28.70,SSE,158,15.2,19.0,75,0.00,,,0.00,VWS V14.01,2013-01-07 08:10:00,
2013-01-07 02:15:00,22.1,15.1,28.70,SSE,158,15.2,17.7,74,0.00,,,0.00,VWS V14.01,2013-01-07 08:15:00,
2013-01-07 02:20:00,21.9,14.6,28.70,SSE,158,11.9,19.0,73,0.00,,,0.00,VWS V14.01,2013-01-07 08:20:00,
2013-01-07 02:25:00,21.9,14.6,28.70,South,180,15.2,16.6,73,0.00,,,0.00,VWS V14.01,2013-01-07 08:25:00,
2013-01-07 02:30:00,23.0,16.3,28.70,SSE,158,17.7,22.4,75,0.00,,,0.00,VWS V14.01,2013-01-07 08:30:00,
2013-01-07 02:35:00,23.7,16.4,28.70,South,180,19.9,26.4,73,0.00,,,0.00,VWS V14.01,2013-01-07 08:35:00,
2013-01-07 02:40:00,24.3,16.2,28.70,South,180,23.5,25.3,71,0.00,,,0.00,VWS V14.01,2013-01-07 08:40:00,
2013-01-07 02:45:00,24.4,16.1,28.70,South,180,23.9,27.1,70,0.00,,,0.00,VWS V14.01,2013-01-07 08:45:00,
2013-01-07 02:50:00,24.8,16.1,28.70,SSE,158,23.5,26.4,69,0.00,,,0.00,VWS V14.01,2013-01-07 08:50:00,
2013-01-07 02:55:00,25.3,15.6,28.64,South,180,27.7,27.7,66,0.00,,,0.00,VWS V14.01,2013-01-07 08:55:00,
2013-01-07 03:00:00,24.6,15.6,28.70,South,180,18.6,24.6,68,0.00,,,0.00,VWS V14.01,2013-01-07 09:00:00,
2013-01-07 03:05:00,25.0,15.6,28.67,SSE,158,23.9,26.4,67,0.00,,,0.00,VWS V14.01,2013-01-07 09:05:00,
2013-01-07 03:10:00,25.3,15.6,28.67,South,180,23.3,26.6,66,0.00,,,0.00,VWS V14.01,2013-01-07 09:10:00,
2013-01-07 03:15:00,26.2,16.4,28.64,SSE,158,24.6,25.3,66,0.00,,,0.00,VWS V14.01,2013-01-07 09:15:00,
2013-01-07 03:20:00,25.3,15.6,28.67,SSE,158,24.2,30.0,66,0.00,,,0.00,VWS V14.01,2013-01-07 09:20:00,
2013-01-07 03:25:00,26.4,16.6,28.64,South,180,17.0,21.9,66,0.00,,,0.00,VWS V14.01,2013-01-07 09:25:00,
2013-01-07 03:30:00,25.2,15.4,28.67,South,180,25.3,25.3,66,0.00,,,0.00,VWS V14.01,2013-01-07 09:30:00,
2013-01-07 03:35:00,25.2,15.4,28.67,South,180,23.9,27.7,66,0.00,,,0.00,VWS V14.01,2013-01-07 09:35:00,
2013-01-07 03:40:00,25.3,15.2,28.67,South,180,28.9,30.0,65,0.00,,,0.00,VWS V14.01,2013-01-07 09:40:00,
2013-01-07 03:45:00,25.5,15.4,28.67,SSE,158,23.7,30.0,65,0.00,,,0.00,VWS V14.01,2013-01-07 09:45:00,
2013-01-07 03:50:00,27.3,17.1,28.64,South,180,14.8,25.7,65,0.00,,,0.00,VWS V14.01,2013-01-07 09:50:00,
2013-01-07 03:55:00,25.3,15.6,28.64,South,180,27.7,27.7,66,0.00,,,0.00,VWS V14.01,2013-01-07 09:55:00,
2013-01-07 04:00:00,27.9,17.6,28.64,South,180,23.0,23.0,65,0.00,,,0.00,VWS V14.01,2013-01-07 10:00:00,
2013-01-07 04:05:00,25.7,15.9,28.64,South,180,28.4,28.4,66,0.00,,,0.00,VWS V14.01,2013-01-07 10:05:00,
2013-01-07 04:10:00,26.1,16.3,28.64,South,180,22.4,28.4,66,0.00,,,0.00,VWS V14.01,2013-01-07 10:10:00,
2013-01-07 04:15:00,26.2,16.4,28.64,SSE,158,24.6,25.3,66,0.00,,,0.00,VWS V14.01,2013-01-07 10:15:00,
2013-01-07 04:20:00,28.6,17.6,28.61,South,180,22.2,25.5,63,0.00,,,0.00,VWS V14.01,2013-01-07 10:20:00,
2013-01-07 04:25:00,26.4,16.6,28.64,South,180,17.0,21.9,66,0.00,,,0.00,VWS V14.01,2013-01-07 10:25:00,
2013-01-07 04:30:00,26.8,16.6,28.64,SSW,202,22.4,22.4,65,0.00,,,0.00,VWS V14.01,2013-01-07 10:30:00,
2013-01-07 04:35:00,28.6,17.6,28.61,South,180,17.7,23.7,63,0.00,,,0.00,VWS V14.01,2013-01-07 10:35:00,
2013-01-07 04:40:00,27.3,17.1,28.64,South,180,20.8,23.5,65,0.00,,,0.00,VWS V14.01,2013-01-07 10:40:00,
2013-01-07 04:45:00,27.1,17.0,28.64,SSW,202,17.9,22.4,65,0.00,,,0.00,VWS V14.01,2013-01-07 10:45:00,
2013-01-07 04:50:00,27.3,17.1,28.64,South,180,14.8,25.7,65,0.00,,,0.00,VWS V14.01,2013-01-07 10:50:00,
2013-01-07 04:55:00,27.7,17.5,28.64,SSW,202,21.3,22.2,65,0.00,,,0.00,VWS V14.01,2013-01-07 10:55:00,
2013-01-07 05:00:00,29.3,17.9,28.61,South,180,21.9,24.6,62,0.00,,,0.00,VWS V14.01,2013-01-07 11:00:00,
2013-01-07 05:05:00,28.4,17.8,28.64,South,180,27.5,27.5,64,0.00,,,0.00,VWS V14.01,2013-01-07 11:05:00,
2013-01-07 05:10:00,29.5,17.3,28.61,SSW,202,17.5,20.4,60,0.00,,,0.00,VWS V14.01,2013-01-07 11:10:00,
2013-01-07 05:15:00,28.6,17.6,28.64,South,180,23.0,26.0,63,0.00,,,0.00,VWS V14.01,2013-01-07 11:15:00,
2013-01-07 05:20:00,28.6,17.6,28.61,South,180,22.2,25.5,63,0.00,,,0.00,VWS V14.01,2013-01-07 11:20:00,
2013-01-07 05:25:00,28.6,17.6,28.61,South,180,19.2,25.7,63,0.00,,,0.00,VWS V14.01,2013-01-07 11:25:00,
2013-01-07 05:30:00,28.4,17.4,28.61,South,180,14.1,20.8,63,0.00,,,0.00,VWS V14.01,2013-01-07 11:30:00,
2013-01-07 05:35:00,28.8,16.6,28.64,SSW,202,12.3,13.6,60,0.00,,,0.00,VWS V14.01,2013-01-07 11:35:00,
2013-01-07 05:40:00,28.8,17.4,28.61,South,180,24.4,28.4,62,0.00,,,0.00,VWS V14.01,2013-01-07 11:40:00,
2013-01-07 05:45:00,27.9,16.9,28.64,SSW,202,17.7,17.7,63,0.00,,,0.00,VWS V14.01,2013-01-07 11:45:00,
2013-01-07 05:50:00,29.3,17.9,28.61,South,180,23.7,26.0,62,0.00,,,0.00,VWS V14.01,2013-01-07 11:50:00,
2013-01-07 05:55:00,28.6,17.2,28.64,SSW,202,12.3,17.0,62,0.00,,,0.00,VWS V14.01,2013-01-07 11:55:00,
2013-01-07 06:00:00,29.3,17.9,28.61,South,180,21.9,24.6,62,0.00,,,0.00,VWS V14.01,2013-01-07 12:00:00,
2013-01-07 06:05:00,28.6,17.2,28.64,SSW,202,15.2,17.0,62,0.00,,,0.00,VWS V14.01,2013-01-07 12:05:00,
2013-01-07 06:10:00,29.5,17.3,28.61,SSW,202,17.5,20.4,60,0.00,,,0.00,VWS V14.01,2013-01-07 12:10:00,
2013-01-07 06:15:00,29.3,17.1,28.61,SSW,202,13.2,23.0,60,0.00,,,0.00,VWS V14.01,2013-01-07 12:15:00,
2013-01-07 06:20:00,29.1,17.7,28.64,SW,225,14.5,21.9,62,0.00,,,0.00,VWS V14.01,2013-01-07 12:20:00,
2013-01-07 06:25:00,29.1,17.0,28.64,South,180,11.0,12.8,60,0.00,,,0.00,VWS V14.01,2013-01-07 12:25:00,
2013-01-07 06:30:00,28.9,16.8,28.64,SSW,202,13.0,17.0,60,0.00,,,0.00,VWS V14.01,2013-01-07 12:30:00,
2013-01-07 06:35:00,28.8,16.6,28.64,SSW,202,12.3,13.6,60,0.00,,,0.00,VWS V14.01,2013-01-07 12:35:00,
2013-01-07 06:40:00,28.0,16.3,28.64,SSW,202,9.8,13.0,61,0.00,,,0.00,VWS V14.01,2013-01-07 12:40:00,
2013-01-07 06:45:00,27.9,16.9,28.64,SSW,202,17.7,17.7,63,0.00,,,0.00,VWS V14.01,2013-01-07 12:45:00,
2013-01-07 06:50:00,28.4,17.4,28.64,SSW,202,13.0,17.7,63,0.00,,,0.00,VWS V14.01,2013-01-07 12:50:00,
2013-01-07 06:55:00,28.9,17.2,28.64,SW,225,11.2,17.9,61,0.00,,,0.00,VWS V14.01,2013-01-07 12:55:00,
2013-01-07 07:00:00,28.9,17.6,28.64,SSW,202,15.7,17.0,62,0.00,,,0.00,VWS V14.01,2013-01-07 13:00:00,
2013-01-07 07:05:00,28.6,17.2,28.64,SSW,202,15.2,17.0,62,0.00,,,0.00,VWS V14.01,2013-01-07 13:05:00,
2013-01-07 07:10:00,30.0,17.4,28.64,SSW,202,16.1,19.7,59,0.00,,,0.00,VWS V14.01,2013-01-07 13:10:00,
2013-01-07 07:15:00,28.6,17.2,28.64,SW,225,13.2,17.0,62,0.00,,,0.00,VWS V14.01,2013-01-07 13:15:00,
2013-01-07 07:20:00,29.7,17.5,28.64,SSW,202,13.4,17.2,60,0.00,,,0.00,VWS V14.01,2013-01-07 13:20:00,
2013-01-07 07:25:00,29.3,17.9,28.64,SSW,202,16.8,19.9,62,0.00,,,0.00,VWS V14.01,2013-01-07 13:25:00,
2013-01-07 07:30:00,29.3,17.9,28.64,SW,225,16.3,17.7,62,0.00,,,0.00,VWS V14.01,2013-01-07 13:30:00,
2013-01-07 07:35:00,29.1,17.4,28.64,SW,225,14.5,18.6,61,0.00,,,0.00,VWS V14.01,2013-01-07 13:35:00,
2013-01-07 07:40:00,30.2,17.6,28.64,SW,225,14.5,17.2,59,0.00,,,0.00,VWS V14.01,2013-01-07 13:40:00,
2013-01-07 07:45:00,29.3,17.5,28.64,SW,225,12.8,17.7,61,0.00,,,0.00,VWS V14.01,2013-01-07 13:45:00,
2013-01-07 07:50:00,29.1,17.4,28.64,SW,225,12.8,17.7,61,0.00,,,0.00,VWS V14.01,2013-01-07 13:50:00,
2013-01-07 07:55:00,30.6,18.0,28.67,SW,225,14.3,17.5,59,0.00,,,0.00,VWS V14.01,2013-01-07 13:55:00,
2013-01-07 08:00:00,28.9,17.6,28.64,SSW,202,16.1,17.7,62,0.00,,,0.00,VWS V14.01,2013-01-07 14:00:00,
2013-01-07 08:05:00,29.7,17.9,28.64,SSW,202,15.4,20.1,61,0.00,,,0.00,VWS V14.01,2013-01-07 14:05:00,
2013-01-07 08:10:00,30.0,17.4,28.64,SSW,202,16.1,19.7,59,0.00,,,0.00,VWS V14.01,2013-01-07 14:10:00,
2013-01-07 08:15:00,30.7,18.5,28.67,SW,225,13.0,13.4,60,0.00,,,0.00,VWS V14.01,2013-01-07 14:15:00,
2013-01-07 08:20:00,29.7,17.5,28.64,SSW,202,13.4,17.2,60,0.00,,,0.00,VWS V14.01,2013-01-07 14:20:00,
2013-01-07 08:25:00,29.7,17.5,28.64,SW,225,15.9,16.1,60,0.00,,,0.00,VWS V14.01,2013-01-07 14:25:00,
2013-01-07 08:30:00,31.1,18.5,28.67,SW,225,13.0,13.6,59,0.00,,,0.00,VWS V14.01,2013-01-07 14:30:00,
2013-01-07 08:35:00,30.2,18.0,28.64,SSW,202,14.3,15.4,60,0.00,,,0.00,VWS V14.01,2013-01-07 14:35:00,
2013-01-07 08:40:00,30.2,17.6,28.64,SW,225,14.5,17.2,59,0.00,,,0.00,VWS V14.01,2013-01-07 14:40:00,
2013-01-07 08:45:00,30.2,17.6,28.64,SW,225,17.7,17.7,59,0.00,,,0.00,VWS V14.01,2013-01-07 14:45:00,
2013-01-07 08:50:00,30.6,18.0,28.67,SSW,202,16.3,17.7,59,0.00,,,0.00,VWS V14.01,2013-01-07 14:50:00,
2013-01-07 08:55:00,30.6,18.0,28.67,SW,225,14.3,17.5,59,0.00,,,0.00,VWS V14.01,2013-01-07 14:55:00,
2013-01-07 09:00:00,30.4,17.8,28.67,SW,225,14.3,16.3,59,0.00,,,0.00,VWS V14.01,2013-01-07 15:00:00,
2013-01-07 09:05:00,32.2,19.1,28.67,SSW,202,12.5,13.2,58,0.00,,,0.00,VWS V14.01,2013-01-07 15:05:00,
2013-01-07 09:10:00,30.2,18.0,28.67,SW,225,12.8,14.5,60,0.00,,,0.00,VWS V14.01,2013-01-07 15:10:00,
2013-01-07 09:15:00,33.8,20.2,28.67,SSW,202,8.1,11.9,57,0.00,,,0.00,VWS V14.01,2013-01-07 15:15:00,
2013-01-07 09:20:00,31.3,18.6,28.67,SW,225,13.2,15.7,59,0.00,,,0.00,VWS V14.01,2013-01-07 15:20:00,
2013-01-07 09:25:00,31.1,18.5,28.67,SW,225,13.2,14.8,59,0.00,,,0.00,VWS V14.01,2013-01-07 15:25:00,
2013-01-07 09:30:00,31.1,18.5,28.67,SW,225,13.0,13.6,59,0.00,,,0.00,VWS V14.01,2013-01-07 15:30:00,
2013-01-07 09:35:00,31.1,18.9,28.67,SSW,202,10.3,13.0,60,0.00,,,0.00,VWS V14.01,2013-01-07 15:35:00,
2013-01-07 09:40:00,33.8,20.2,28.67,SW,225,9.8,13.0,57,0.00,,,0.00,VWS V14.01,2013-01-07 15:40:00,
2013-01-07 09:45:00,31.3,19.0,28.67,SW,225,6.0,10.7,60,0.00,,,0.00,VWS V14.01,2013-01-07 15:45:00,
2013-01-07 09:50:00,35.2,21.1,28.70,SW,225,7.8,10.5,56,0.00,,,0.00,VWS V14.01,2013-01-07 15:50:00,
2013-01-07 09:55:00,32.0,18.9,28.67,SW,225,9.8,10.3,58,0.00,,,0.00,VWS V14.01,2013-01-07 15:55:00,
2013-01-07 10:00:00,35.4,20.9,28.70,SW,225,8.7,11.0,55,0.00,,,0.00,VWS V14.01,2013-01-07 16:00:00,
2013-01-07 10:05:00,32.2,19.1,28.67,SSW,202,12.5,13.2,58,0.00,,,0.00,VWS V14.01,2013-01-07 16:05:00,
2013-01-07 10:10:00,32.9,19.8,28.67,SSW,202,10.5,12.5,58,0.00,,,0.00,VWS V14.01,2013-01-07 16:10:00,
2013-01-07 10:15:00,35.6,20.6,28.67,SW,225,9.2,13.0,54,0.00,,,0.00,VWS V14.01,2013-01-07 16:15:00,
2013-01-07 10:20:00,33.6,20.0,28.67,SW,225,8.7,12.3,57,0.00,,,0.00,VWS V14.01,2013-01-07 16:20:00,
2013-01-07 10:25:00,34.9,20.8,28.67,SW,225,8.7,12.8,56,0.00,,,0.00,VWS V14.01,2013-01-07 16:25:00,
2013-01-07 10:30:00,33.3,19.7,28.67,SW,225,9.6,11.9,57,0.00,,,0.00,VWS V14.01,2013-01-07 16:30:00,
2013-01-07 10:35:00,33.8,19.8,28.67,SSW,202,13.0,13.0,56,0.00,,,0.00,VWS V14.01,2013-01-07 16:35:00,
2013-01-07 10:40:00,33.8,20.2,28.67,SW,225,9.8,13.0,57,0.00,,,0.00,VWS V14.01,2013-01-07 16:40:00,
2013-01-07 10:45:00,34.0,20.4,28.67,SW,225,9.8,10.1,57,0.00,,,0.00,VWS V14.01,2013-01-07 16:45:00,
2013-01-07 10:50:00,35.4,21.7,28.64,SW,225,8.5,10.3,57,0.00,,,0.00,VWS V14.01,2013-01-07 16:50:00,
2013-01-07 10:55:00,35.6,21.0,28.70,SW,225,9.8,13.0,55,0.00,,,0.00,VWS V14.01,2013-01-07 16:55:00,
2013-01-07 11:00:00,35.8,21.6,28.64,SW,225,8.5,10.3,56,0.00,,,0.00,VWS V14.01,2013-01-07 17:00:00,
2013-01-07 11:05:00,35.4,20.9,28.67,SW,225,8.5,12.3,55,0.00,,,0.00,VWS V14.01,2013-01-07 17:05:00,
2013-01-07 11:10:00,35.2,20.3,28.67,SW,225,10.7,12.8,54,0.00,,,0.00,VWS V14.01,2013-01-07 17:10:00,
2013-01-07 11:15:00,35.6,20.6,28.67,SW,225,9.2,13.0,54,0.00,,,0.00,VWS V14.01,2013-01-07 17:15:00,
2013-01-07 11:20:00,34.9,20.8,28.67,SSW,202,8.1,11.0,56,0.00,,,0.00,VWS V14.01,2013-01-07 17:20:00,
2013-01-07 11:25:00,35.6,20.2,28.64,SW,225,13.2,13.9,53,0.00,,,0.00,VWS V14.01,2013-01-07 17:25:00,
2013-01-07 11:30:00,34.5,20.5,28.67,SSW,202,10.5,12.1,56,0.00,,,0.00,VWS V14.01,2013-01-07 17:30:00,
2013-01-07 11:35:00,35.1,21.4,28.64,SW,225,8.1,10.5,57,0.00,,,0.00,VWS V14.01,2013-01-07 17:35:00,
2013-01-07 11:40:00,35.2,21.5,28.64,SW,225,10.7,10.7,57,0.00,,,0.00,VWS V14.01,2013-01-07 17:40:00,
2013-01-07 11:45:00,35.2,21.1,28.64,SW,225,8.7,10.7,56,0.00,,,0.00,VWS V14.01,2013-01-07 17:45:00,
2013-01-07 11:50:00,35.6,21.5,28.64,WSW,248,8.7,10.7,56,0.00,,,0.00,VWS V14.01,2013-01-07 17:50:00,
2013-01-07 11:55:00,35.6,21.5,28.64,SW,225,7.8,11.2,56,0.00,,,0.00,VWS V14.01,2013-01-07 17:55:00,
2013-01-07 12:00:00,35.8,22.0,28.64,WSW,248,10.1,10.1,57,0.00,,,0.00,VWS V14.01,2013-01-07 18:00:00,
2013-01-07 12:05:00,36.1,22.0,28.64,SW,225,7.8,10.7,56,0.00,,,0.00,VWS V14.01,2013-01-07 18:05:00,
2013-01-07 12:10:00,36.1,22.4,28.64,WSW,248,6.5,10.3,57,0.00,,,0.00,VWS V14.01,2013-01-07 18:10:00,
2013-01-07 12:15:00,36.1,21.5,28.64,WSW,248,8.1,10.1,55,0.00,,,0.00,VWS V14.01,2013-01-07 18:15:00,
2013-01-07 12:20:00,37.4,22.3,28.64,West,270,5.6,9.4,54,0.00,,,0.00,VWS V14.01,2013-01-07 18:20:00,
2013-01-07 12:25:00,35.6,20.2,28.64,SW,225,13.2,13.9,53,0.00,,,0.00,VWS V14.01,2013-01-07 18:25:00,
2013-01-07 12:30:00,35.8,21.2,28.64,SW,225,10.5,13.2,55,0.00,,,0.00,VWS V14.01,2013-01-07 18:30:00,
2013-01-07 12:35:00,37.6,22.0,28.64,WSW,248,5.6,8.7,53,0.00,,,0.00,VWS V14.01,2013-01-07 18:35:00,
2013-01-07 12:40:00,36.1,22.4,28.64,WSW,248,6.5,10.3,57,0.00,,,0.00,VWS V14.01,2013-01-07 18:40:00,
2013-01-07 12:45:00,35.8,21.2,28.64,SW,225,8.5,10.3,55,0.00,,,0.00,VWS V14.01,2013-01-07 18:45:00,
2013-01-07 12:50:00,35.6,21.5,28.64,WSW,248,8.7,10.7,56,0.00,,,0.00,VWS V14.01,2013-01-07 18:50:00,
2013-01-07 12:55:00,35.6,21.0,28.64,WSW,248,8.1,10.5,55,0.00,,,0.00,VWS V14.01,2013-01-07 18:55:00,
2013-01-07 13:00:00,35.8,22.0,28.64,WSW,248,10.1,10.1,57,0.00,,,0.00,VWS V14.01,2013-01-07 19:00:00,
2013-01-07 13:05:00,36.1,22.0,28.64,WSW,248,7.8,10.7,56,0.00,,,0.00,VWS V14.01,2013-01-07 19:05:00,
2013-01-07 13:10:00,36.5,22.7,28.64,SW,225,7.8,8.7,57,0.00,,,0.00,VWS V14.01,2013-01-07 19:10:00,
2013-01-07 13:15:00,37.4,22.3,28.64,WSW,248,4.9,8.7,54,0.00,,,0.00,VWS V14.01,2013-01-07 19:15:00,
2013-01-07 13:20:00,37.4,22.3,28.64,West,270,5.6,9.4,54,0.00,,,0.00,VWS V14.01,2013-01-07 19:20:00,
2013-01-07 13:25:00,37.9,22.8,28.64,WSW,248,5.8,8.7,54,0.00,,,0.00,VWS V14.01,2013-01-07 19:25:00,
2013-01-07 13:30:00,37.6,22.0,28.64,West,270,8.5,8.5,53,0.00,,,0.00,VWS V14.01,2013-01-07 19:30:00,
2013-01-07 13:35:00,37.6,22.0,28.64,WSW,248,5.6,8.7,53,0.00,,,0.00,VWS V14.01,2013-01-07 19:35:00,
2013-01-07 13:40:00,37.4,21.9,28.64,SW,225,6.3,8.1,53,0.00,,,0.00,VWS V14.01,2013-01-07 19:40:00,
2013-01-07 13:45:00,35.8,22.0,28.64,SW,225,5.6,7.8,57,0.00,,,0.00,VWS V14.01,2013-01-07 19:45:00,
2013-01-07 13:50:00,36.7,22.0,28.64,WSW,248,7.6,8.5,55,0.00,,,0.00,VWS V14.01,2013-01-07 19:50:00,
2013-01-07 13:55:00,35.8,22.5,28.64,WSW,248,5.8,8.1,58,0.00,,,0.00,VWS V14.01,2013-01-07 19:55:00,
2013-01-07 14:00:00,36.7,22.9,28.64,SW,225,6.7,8.7,57,0.00,,,0.00,VWS V14.01,2013-01-07 20:00:00,
2013-01-07 14:05:00,36.3,22.6,28.64,SW,225,6.5,9.4,57,0.00,,,0.00,VWS V14.01,2013-01-07 20:05:00,
2013-01-07 14:10:00,36.5,22.7,28.64,SW,225,7.8,8.7,57,0.00,,,0.00,VWS V14.01,2013-01-07 20:10:00,
2013-01-07 14:15:00,36.7,22.9,28.64,WSW,248,6.5,8.1,57,0.00,,,0.00,VWS V14.01,2013-01-07 20:15:00,
2013-01-07 14:20:00,36.5,21.9,28.64,SW,225,6.9,9.6,55,0.00,,,0.00,VWS V14.01,2013-01-07 20:20:00,
2013-01-07 14:25:00,36.3,23.0,28.64,WSW,248,5.8,6.9,58,0.00,,,0.00,VWS V14.01,2013-01-07 20:25:00,
2013-01-07 14:30:00,36.3,22.6,28.64,WSW,248,6.0,7.8,57,0.00,,,0.00,VWS V14.01,2013-01-07 20:30:00,
2013-01-07 14:35:00,36.3,22.6,28.64,WSW,248,6.0,7.6,57,0.00,,,0.00,VWS V14.01,2013-01-07 20:35:00,
2013-01-07 14:40:00,36.1,22.4,28.64,SW,225,6.3,8.5,57,0.00,,,0.00,VWS V14.01,2013-01-07 20:40:00,
2013-01-07 14:45:00,35.8,22.0,28.64,SW,225,5.6,7.8,57,0.00,,,0.00,VWS V14.01,2013-01-07 20:45:00,
2013-01-07 14:50:00,35.6,22.3,28.64,WSW,248,7.4,9.0,58,0.00,,,0.00,VWS V14.01,2013-01-07 20:50:00,
2013-01-07 14:55:00,32.7,21.1,28.67,WSW,248,3.8,5.6,62,0.00,,,0.00,VWS V14.01,2013-01-07 20:55:00,
2013-01-07 15:00:00,35.6,22.3,28.64,WSW,248,7.8,8.1,58,0.00,,,0.00,VWS V14.01,2013-01-07 21:00:00,
2013-01-07 15:05:00,35.4,22.1,28.64,WSW,248,6.0,7.8,58,0.00,,,0.00,VWS V14.01,2013-01-07 21:05:00,
2013-01-07 15:10:00,34.5,21.7,28.64,WSW,248,4.3,7.6,59,0.00,,,0.00,VWS V14.01,2013-01-07 21:10:00,
2013-01-07 15:15:00,34.0,21.6,28.64,WSW,248,7.4,8.1,60,0.00,,,0.00,VWS V14.01,2013-01-07 21:15:00,
2013-01-07 15:20:00,34.0,22.0,28.67,WSW,248,5.8,7.8,61,0.00,,,0.00,VWS V14.01,2013-01-07 21:20:00,
2013-01-07 15:25:00,34.9,22.8,28.67,WSW,248,4.3,7.8,61,0.00,,,0.00,VWS V14.01,2013-01-07 21:25:00,
2013-01-07 15:30:00,32.0,21.9,28.67,SW,225,4.9,6.0,66,0.00,,,0.00,VWS V14.01,2013-01-07 21:30:00,
2013-01-07 15:35:00,34.7,22.2,28.67,WSW,248,5.4,6.3,60,0.00,,,0.00,VWS V14.01,2013-01-07 21:35:00,
2013-01-07 15:40:00,34.2,22.1,28.67,West,270,3.8,5.8,61,0.00,,,0.00,VWS V14.01,2013-01-07 21:40:00,
2013-01-07 15:45:00,34.0,22.0,28.67,West,270,6.3,6.5,61,0.00,,,0.00,VWS V14.01,2013-01-07 21:45:00,
2013-01-07 15:50:00,33.6,21.6,28.67,West,270,5.6,6.3,61,0.00,,,0.00,VWS V14.01,2013-01-07 21:50:00,
2013-01-07 15:55:00,32.7,21.1,28.67,WSW,248,3.8,5.6,62,0.00,,,0.00,VWS V14.01,2013-01-07 21:55:00,
2013-01-07 16:00:00,28.4,20.2,28.67,West,270,5.4,5.4,71,0.00,,,0.00,VWS V14.01,2013-01-07 22:00:00,
2013-01-07 16:05:00,32.5,22.5,28.67,West,270,3.4,5.6,66,0.00,,,0.00,VWS V14.01,2013-01-07 22:05:00,
2013-01-07 16:10:00,32.5,22.1,28.67,West,270,2.7,4.7,65,0.00,,,0.00,VWS V14.01,2013-01-07 22:10:00,
2013-01-07 16:15:00,27.1,21.5,28.67,WSW,248,5.8,6.7,79,0.00,,,0.00,VWS V14.01,2013-01-07 22:15:00,
2013-01-07 16:20:00,32.7,22.6,28.67,WSW,248,5.4,5.6,66,0.00,,,0.00,VWS V14.01,2013-01-07 22:20:00,
2013-01-07 16:25:00,32.9,22.1,28.67,WSW,248,5.6,6.0,64,0.00,,,0.00,VWS V14.01,2013-01-07 22:25:00,
2013-01-07 16:30:00,25.3,18.9,28.67,SW,225,3.8,5.4,76,0.00,,,0.00,VWS V14.01,2013-01-07 22:30:00,
2013-01-07 16:35:00,31.6,21.6,28.67,WSW,248,3.6,5.4,66,0.00,,,0.00,VWS V14.01,2013-01-07 22:35:00,
2013-01-07 16:40:00,24.8,19.5,28.67,SW,225,4.9,5.8,80,0.00,,,0.00,VWS V14.01,2013-01-07 22:40:00,
2013-01-07 16:45:00,31.6,21.6,28.67,West,270,3.8,4.7,66,0.00,,,0.00,VWS V14.01,2013-01-07 22:45:00,
2013-01-07 16:50:00,30.4,19.3,28.67,WSW,248,3.8,4.0,63,0.00,,,0.00,VWS V14.01,2013-01-07 22:50:00,
2013-01-07 16:55:00,29.3,20.7,28.67,WSW,248,4.9,5.8,70,0.00,,,0.00,VWS V14.01,2013-01-07 22:55:00,
2013-01-07 17:00:00,28.4,20.2,28.67,West,270,5.4,5.4,71,0.00,,,0.00,VWS V14.01,2013-01-07 23:00:00,
2013-01-07 17:05:00,23.2,18.2,28.67,SW,225,3.4,5.4,81,0.00,,,0.00,VWS V14.01,2013-01-07 23:05:00,
2013-01-07 17:10:00,27.0,19.5,28.67,WSW,248,5.4,5.6,73,0.00,,,0.00,VWS V14.01,2013-01-07 23:10:00,
2013-01-07 17:15:00,23.7,20.4,28.67,West,270,2.0,5.6,87,0.00,,,0.00,VWS V14.01,2013-01-07 23:15:00,
2013-01-07 17:20:00,26.4,20.2,28.67,West,270,2.7,5.8,77,0.00,,,0.00,VWS V14.01,2013-01-07 23:20:00,
2013-01-07 17:25:00,25.7,18.9,28.67,SW,225,3.8,5.6,75,0.00,,,0.00,VWS V14.01,2013-01-07 23:25:00,
2013-01-07 17:30:00,25.3,18.9,28.67,SW,225,3.8,5.4,76,0.00,,,0.00,VWS V14.01,2013-01-07 23:30:00,
2013-01-07 17:35:00,25.0,19.1,28.67,SW,225,4.9,5.6,78,0.00,,,0.00,VWS V14.01,2013-01-07 23:35:00,
2013-01-07 17:40:00,24.8,19.5,28.67,SW,225,4.9,5.8,80,0.00,,,0.00,VWS V14.01,2013-01-07 23:40:00,
2013-01-07 17:45:00,24.6,19.6,28.67,SW,225,6.0,6.0,81,0.00,,,0.00,VWS V14.01,2013-01-07 23:45:00,
2013-01-07 17:50:00,21.4,17.3,28.67,WSW,248,2.0,4.0,84,0.00,,,0.00,VWS V14.01,2013-01-07 23:50:00,
2013-01-07 17:55:00,24.4,20.0,28.67,WSW,248,2.5,4.9,83,0.00,,,0.00,VWS V14.01,2013-01-07 23:55:00,
2013-01-07 18:00:00,23.5,18.6,28.67,SW,225,4.0,4.0,81,0.00,,,0.00,VWS V14.01,2013-01-08 00:00:00,
2013-01-07 18:05:00,23.2,18.2,28.67,SW,225,3.4,5.4,81,0.00,,,0.00,VWS V14.01,2013-01-08 00:05:00,
2013-01-07 18:10:00,23.2,18.5,28.67,WSW,248,5.4,5.4,82,0.00,,,0.00,VWS V14.01,2013-01-08 00:10:00,
2013-01-07 18:15:00,23.7,20.4,28.67,West,270,2.0,5.6,87,0.00,,,0.00,VWS V14.01,2013-01-08 00:15:00,
2013-01-07 18:20:00,22.8,19.5,28.67,West,270,3.4,3.4,87,0.00,,,0.00,VWS V14.01,2013-01-08 00:20:00,
2013-01-07 18:25:00,18.1,13.0,28.67,SSE,158,0.0,1.6,80,0.00,,,0.00,VWS V14.01,2013-01-08 00:25:00,
2013-01-07 18:30:00,22.1,18.3,28.67,West,270,1.3,2.2,85,0.00,,,0.00,VWS V14.01,2013-01-08 00:30:00,
2013-01-07 18:35:00,22.3,18.5,28.67,SSE,158,1.6,3.1,85,0.00,,,0.00,VWS V14.01,2013-01-08 00:35:00,
2013-01-07 18:40:00,20.7,15.8,28.67,South,180,0.0,2.0,81,0.00,,,0.00,VWS V14.01,2013-01-08 00:40:00,
2013-01-07 18:45:00,20.3,15.1,28.67,SW,225,3.6,3.6,80,0.00,,,0.00,VWS V14.01,2013-01-08 00:45:00,
2013-01-07 18:50:00,21.4,17.3,28.67,WSW,248,2.0,4.0,84,0.00,,,0.00,VWS V14.01,2013-01-08 00:50:00,
2013-01-07 18:55:00,17.8,14.8,28.67,SW,225,4.3,4.3,88,0.00,,,0.00,VWS V14.01,2013-01-08 00:55:00,
2013-01-07 19:00:00,20.7,16.3,28.67,West,270,0.0,0.0,83,0.00,,,0.00,VWS V14.01,2013-01-08 01:00:00,
2013-01-07 19:05:00,21.2,17.4,28.67,South,180,0.0,2.5,85,0.00,,,0.00,VWS V14.01,2013-01-08 01:05:00,
2013-01-07 19:10:00,20.3,16.0,28.67,SSE,158,0.0,0.0,83,0.00,,,0.00,VWS V14.01,2013-01-08 01:10:00,
2013-01-07 19:15:00,19.8,15.2,28.67,SSE,158,0.0,0.0,82,0.00,,,0.00,VWS V14.01,2013-01-08 01:15:00,
2013-01-07 19:20:00,19.2,14.6,28.67,SSE,158,0.9,1.1,82,0.00,,,0.00,VWS V14.01,2013-01-08 01:20:00,
2013-01-07 19:25:00,18.1,13.0,28.67,SSE,158,0.0,1.6,80,0.00,,,0.00,VWS V14.01,2013-01-08 01:25:00,
2013-01-07 19:30:00,17.8,12.7,28.67,SSW,202,0.0,1.3,80,0.00,,,0.00,VWS V14.01,2013-01-08 01:30:00,
2013-01-07 19:35:00,18.5,16.1,28.67,WNW,292,0.0,2.9,90,0.00,,,0.00,VWS V14.01,2013-01-08 01:35:00,
2013-01-07 19:40:00,16.9,12.4,28.67,SSE,158,0.0,2.0,82,0.00,,,0.00,VWS V14.01,2013-01-08 01:40:00,
2013-01-07 19:45:00,16.7,12.2,28.67,South,180,2.9,2.9,82,0.00,,,0.00,VWS V14.01,2013-01-08 01:45:00,
2013-01-07 19:50:00,17.1,13.6,28.67,SSW,202,1.3,3.6,86,0.00,,,0.00,VWS V14.01,2013-01-08 01:50:00,
2013-01-07 19:55:00,17.8,14.8,28.67,SW,225,4.3,4.3,88,0.00,,,0.00,VWS V14.01,2013-01-08 01:55:00,
2013-01-07 20:00:00,18.5,16.1,28.67,NW,315,1.3,4.3,90,0.00,,,0.00,VWS V14.01,2013-01-08 02:00:00,
2013-01-07 20:05:00,18.1,15.4,28.67,SSW,202,2.7,2.7,89,0.00,,,0.00,VWS V14.01,2013-01-08 02:05:00,
2013-01-07 20:10:00,18.7,16.0,28.67,SW,225,2.5,3.1,89,0.00,,,0.00,VWS V14.01,2013-01-08 02:10:00,
2013-01-07 20:15:00,18.7,16.2,28.67,SW,225,0.0,3.6,90,0.00,,,0.00,VWS V14.01,2013-01-08 02:15:00,
2013-01-07 20:20:00,18.0,15.0,28.67,NNW,338,1.3,1.3,88,0.00,,,0.00,VWS V14.01,2013-01-08 02:20:00,
2013-01-07 20:25:00,17.8,14.8,28.67,South,180,0.0,1.6,88,0.00,,,0.00,VWS V14.01,2013-01-08 02:25:00,
2013-01-07 20:30:00,18.9,16.4,28.67,WNW,292,2.2,3.4,90,0.00,,,0.00,VWS V14.01,2013-01-08 02:30:00,
2013-01-07 20:35:00,18.5,16.1,28.67,WNW,292,0.0,2.9,90,0.00,,,0.00,VWS V14.01,2013-01-08 02:35:00,
2013-01-07 20:40:00,18.0,15.0,28.67,NW,315,2.7,3.1,88,0.00,,,0.00,VWS V14.01,2013-01-08 02:40:00,
2013-01-07 20:45:00,18.3,15.6,28.67,West,270,1.3,1.3,89,0.00,,,0.00,VWS V14.01,2013-01-08 02:45:00,
2013-01-07 20:50:00,18.0,15.3,28.67,West,270,0.0,1.3,89,0.00,,,0.00,VWS V14.01,2013-01-08 02:50:00,
2013-01-07 20:55:00,16.5,12.8,28.67,South,180,0.0,0.0,85,0.00,,,0.00,VWS V14.01,2013-01-08 02:55:00,
2013-01-07 21:00:00,17.8,14.8,28.67,SSW,202,1.3,1.3,88,0.00,,,0.00,VWS V14.01,2013-01-08 03:00:00,
2013-01-07 21:05:00,17.2,14.3,28.67,SSW,202,0.0,1.6,88,0.00,,,0.00,VWS V14.01,2013-01-08 03:05:00,
2013-01-07 21:10:00,17.6,14.7,28.67,WSW,248,0.0,2.2,88,0.00,,,0.00,VWS V14.01,2013-01-08 03:10:00,
2013-01-07 21:15:00,16.2,12.4,28.67,West,270,0.0,0.0,85,0.00,,,0.00,VWS V14.01,2013-01-08 03:15:00,
2013-01-07 21:20:00,18.7,16.0,28.67,South,180,0.0,2.5,89,0.00,,,0.00,VWS V14.01,2013-01-08 03:20:00,
2013-01-07 21:25:00,17.8,14.8,28.67,South,180,0.0,1.6,88,0.00,,,0.00,VWS V14.01,2013-01-08 03:25:00,
2013-01-07 21:30:00,18.1,15.2,28.67,West,270,2.2,2.2,88,0.00,,,0.00,VWS V14.01,2013-01-08 03:30:00,
2013-01-07 21:35:00,14.7,10.8,28.64,SSE,158,0.0,1.6,84,0.00,,,0.00,VWS V14.01,2013-01-08 03:35:00,
2013-01-07 21:40:00,18.0,15.0,28.67,NW,315,2.7,3.1,88,0.00,,,0.00,VWS V14.01,2013-01-08 03:40:00,
2013-01-07 21:45:00,18.1,15.2,28.67,NW,315,1.3,2.7,88,0.00,,,0.00,VWS V14.01,2013-01-08 03:45:00,
2013-01-07 21:50:00,17.1,13.9,28.67,South,180,0.0,1.3,87,0.00,,,0.00,VWS V14.01,2013-01-08 03:50:00,
2013-01-07 21:55:00,16.5,12.8,28.67,South,180,0.0,0.0,85,0.00,,,0.00,VWS V14.01,2013-01-08 03:55:00,
2013-01-07 22:00:00,15.8,11.8,28.67,South,180,0.0,0.0,84,0.00,,,0.00,VWS V14.01,2013-01-08 04:00:00,
2013-01-07 22:05:00,15.8,11.8,28.67,South,180,0.0,0.0,84,0.00,,,0.00,VWS V14.01,2013-01-08 04:05:00,
2013-01-07 22:10:00,13.8,10.1,28.64,SSE,158,0.0,0.0,85,0.00,,,0.00,VWS V14.01,2013-01-08 04:10:00,
2013-01-07 22:15:00,16.2,12.4,28.67,West,270,0.0,0.0,85,0.00,,,0.00,VWS V14.01,2013-01-08 04:15:00,
2013-01-07 22:20:00,16.0,12.5,28.67,West,270,0.0,0.0,86,0.00,,,0.00,VWS V14.01,2013-01-08 04:20:00,
2013-01-07 22:25:00,15.3,11.6,28.67,SSE,158,0.0,0.0,85,0.00,,,0.00,VWS V14.01,2013-01-08 04:25:00,
2013-01-07 22:30:00,14.9,10.9,28.67,SSE,158,0.0,1.6,84,0.00,,,0.00,VWS V14.01,2013-01-08 04:30:00,
2013-01-07 22:35:00,14.7,10.8,28.64,SSE,158,0.0,1.6,84,0.00,,,0.00,VWS V14.01,2013-01-08 04:35:00,
2013-01-07 22:40:00,14.4,10.1,28.64,SSE,158,0.0,2.0,83,0.00,,,0.00,VWS V14.01,2013-01-08 04:40:00,
2013-01-07 22:45:00,11.8,7.9,28.64,SSE,158,1.3,2.0,84,0.00,,,0.00,VWS V14.01,2013-01-08 04:45:00,
2013-01-07 22:50:00,14.0,10.1,28.64,SSE,158,0.0,0.0,84,0.00,,,0.00,VWS V14.01,2013-01-08 04:50:00,
2013-01-07 22:55:00,13.8,9.9,28.64,SSE,158,0.0,0.0,84,0.00,,,0.00,VWS V14.01,2013-01-08 04:55:00,
2013-01-07 23:00:00,14.2,10.2,28.64,SSE,158,0.0,0.0,84,0.00,,,0.00,VWS V14.01,2013-01-08 05:00:00,
2013-01-07 23:05:00,13.8,10.1,28.64,SSE,158,0.0,0.0,85,0.00,,,0.00,VWS V14.01,2013-01-08 05:05:00,
2013-01-07 23:10:00,13.8,10.1,28.64,SSE,158,0.0,0.0,85,0.00,,,0.00,VWS V14.01,2013-01-08 05:10:00,
2013-01-07 23:15:00,15.1,11.9,28.64,NNW,338,2.5,3.4,87,0.00,,,0.00,VWS V14.01,2013-01-08 05:15:00,
2013-01-07 23:20:00,11.7,7.8,28.64,SSE,158,0.0,0.0,84,0.00,,,0.00,VWS V14.01,2013-01-08 05:20:00,
2013-01-07 23:25:00,14.9,11.5,28.64,NNW,338,2.2,2.2,86,0.00,,,0.00,VWS V14.01,2013-01-08 05:25:00,
2013-01-07 23:30:00,14.2,10.5,28.64,NNW,338,0.0,2.2,85,0.00,,,0.00,VWS V14.01,2013-01-08 05:30:00,
2013-01-07 23:35:00,13.3,9.4,28.64,SSE,158,1.6,3.1,84,0.00,,,0.00,VWS V14.01,2013-01-08 05:35:00,
2013-01-07 23:40:00,12.2,8.3,28.64,SSE,158,0.0,2.7,84,0.00,,,0.00,VWS V14.01,2013-01-08 05:40:00,
2013-01-07 23:45:00,11.8,7.9,28.64,SSE,158,1.3,2.0,84,0.00,,,0.00,VWS V14.01,2013-01-08 05:45:00,
2013-01-07 23:50:00,11.7,7.8,28.64,SSE,158,1.6,2.0,84,0.00,,,0.00,VWS V14.01,2013-01-08 05:50:00,
2013-01-07 23:55:00,11.3,7.4,28.64,SSE,158,0.0,2.0,84,0.00,,,0.00,VWS V14.01,2013-01-08 05:55:00,